Аэропорт: Хабаровск-Новый. Хабаровск

ICAO: UHHH

METAR:
2021-01-24 19:30:00
UHHH 241930Z 35003MPS CAVOK M19/M23 Q1031 R23L/090060 NOSIG RMK QFE767/1023
METAR:
2021-01-24 16:45:00
TAF UHHH 241645Z 2418/2524 27003MPS CAVOK FM242100 02003MPS 9999 SCT020